Time;durP1;ratioP1;P1;durP2;ratioP2;P2;SDS_P1;SDS_P2;PMS_P1;PMS_P2;Temp;Humidity;BMP_temperature;BMP_pressure;BME280_temperature;BME280_humidity;BME280_pressure;Samples;Min_cycle;Max_cycle;Signal;HPM_P1;HPM_P2
2021/12/19 00:03:58;;;;;;;33.70;15.40;;;4.00;99.90;;;;;;4997271;28;20211;-69
2021/12/19 00:09:11;;;;;;;24.58;14.30;;;4.00;99.90;;;;;;4997747;28;20199;-69
2021/12/19 00:11:38;;;;;;;23.67;14.48;;;4.00;99.90;;;;;;4996875;28;20221;-69
2021/12/19 00:14:05;;;;;;;24.20;14.35;;;4.00;99.90;;;;;;4997546;28;20691;-69
2021/12/19 00:16:32;;;;;;;21.80;15.45;;;4.00;99.90;;;;;;4997385;28;20241;-69
2021/12/19 00:18:59;;;;;;;21.90;13.23;;;4.10;99.90;;;;;;4998262;28;20281;-69
2021/12/19 00:21:28;;;;;;;25.50;14.68;;;4.00;99.90;;;;;;4996301;28;20301;-69
2021/12/19 00:23:55;;;;;;;24.10;14.90;;;4.00;99.90;;;;;;4979692;28;20210;-69
2021/12/19 00:26:21;;;;;;;24.02;14.98;;;4.10;99.90;;;;;;4997382;28;20206;-69
2021/12/19 00:28:49;;;;;;;26.85;16.05;;;4.10;99.90;;;;;;4996687;28;20229;-69
2021/12/19 00:31:16;;;;;;;28.33;17.30;;;4.10;99.90;;;;;;4995907;28;20234;-69
2021/12/19 00:33:43;;;;;;;28.67;15.40;;;4.10;99.90;;;;;;4978737;28;20207;-69
2021/12/19 00:36:11;;;;;;;30.60;16.33;;;4.10;99.90;;;;;;4995976;28;20207;-69
2021/12/19 00:38:37;;;;;;;25.45;15.45;;;4.20;99.90;;;;;;4995829;28;20202;-69
2021/12/19 00:41:06;;;;;;;27.65;15.52;;;4.20;99.90;;;;;;4996767;28;20199;-69
2021/12/19 00:43:35;;;;;;;30.42;14.98;;;4.20;99.90;;;;;;4997523;28;20493;-68
2021/12/19 00:46:07;;;;;;;21.52;12.75;;;4.10;99.90;;;;;;4996562;28;20202;-69
2021/12/19 00:48:36;;;;;;;24.88;14.10;;;4.20;99.90;;;;;;4996873;28;20689;-68
2021/12/19 00:51:03;;;;;;;25.27;15.30;;;4.20;99.90;;;;;;4996915;28;20268;-68
2021/12/19 00:53:30;;;;;;;20.98;14.57;;;4.20;99.90;;;;;;4995959;28;20202;-68
2021/12/19 00:55:56;;;;;;;23.77;13.85;;;4.20;99.90;;;;;;4996294;28;20230;-68
2021/12/19 00:58:23;;;;;;;24.05;13.93;;;4.30;99.90;;;;;;4996703;28;20229;-69
2021/12/19 01:00:50;;;;;;;27.38;15.32;;;4.30;99.90;;;;;;4978685;28;20224;-69
2021/12/19 01:03:17;;;;;;;24.75;15.70;;;4.20;99.90;;;;;;4996169;28;20547;-69
2021/12/19 01:05:45;;;;;;;29.73;15.98;;;4.30;99.90;;;;;;4996118;28;20206;-69
2021/12/19 01:08:12;;;;;;;28.13;13.95;;;4.20;99.90;;;;;;4995916;28;20199;-69
2021/12/19 01:10:42;;;;;;;21.77;13.45;;;4.20;99.90;;;;;;4995338;28;20210;-69
2021/12/19 01:13:08;;;;;;;20.85;13.63;;;4.10;99.90;;;;;;4995679;28;20642;-69
2021/12/19 01:15:35;;;;;;;25.77;14.55;;;4.20;99.90;;;;;;4996447;28;20206;-69
2021/12/19 01:18:03;;;;;;;24.95;14.23;;;4.20;99.90;;;;;;4996821;28;20202;-69
2021/12/19 01:20:31;;;;;;;26.80;13.20;;;4.10;99.90;;;;;;4995769;28;20354;-69
2021/12/19 01:22:59;;;;;;;24.90;13.75;;;4.10;99.90;;;;;;4995604;28;20294;-69
2021/12/19 01:25:25;;;;;;;23.95;13.38;;;4.10;99.90;;;;;;4996113;28;20322;-69
2021/12/19 01:27:57;;;;;;;24.73;14.10;;;4.10;99.90;;;;;;4996196;28;20183;-69
2021/12/19 01:30:24;;;;;;;28.63;15.30;;;4.20;99.90;;;;;;4995955;28;20202;-69
2021/12/19 01:32:51;;;;;;;23.45;14.23;;;4.10;99.90;;;;;;4995771;28;20202;-69
2021/12/19 01:35:20;;;;;;;29.23;15.45;;;4.20;99.90;;;;;;4995780;28;20235;-69
2021/12/19 01:37:47;;;;;;;25.20;15.88;;;4.20;99.90;;;;;;4995636;28;20733;-69
2021/12/19 01:40:17;;;;;;;28.60;15.43;;;4.20;99.90;;;;;;4997261;28;20280;-69
2021/12/19 01:42:46;;;;;;;26.70;16.23;;;4.20;99.90;;;;;;4997040;28;20617;-69
2021/12/19 01:45:20;;;;;;;30.05;16.90;;;4.20;99.90;;;;;;4996962;28;20662;-69
2021/12/19 01:47:47;;;;;;;31.45;17.35;;;4.20;99.90;;;;;;4997174;28;20372;-69
2021/12/19 01:50:13;;;;;;;27.70;15.93;;;4.20;99.90;;;;;;4982965;28;20190;-69
2021/12/19 01:52:40;;;;;;;29.42;17.42;;;4.10;99.90;;;;;;5001090;28;20608;-70
2021/12/19 01:55:07;;;;;;;31.17;18.05;;;4.20;99.90;;;;;;4997976;28;20215;-69
2021/12/19 01:57:34;;;;;;;32.90;17.63;;;4.20;99.90;;;;;;4998745;28;20236;-69
2021/12/19 02:00:03;;;;;;;38.95;18.58;;;4.00;99.90;;;;;;4998206;28;20230;-69
2021/12/19 02:02:30;;;;;;;37.38;18.80;;;4.10;99.90;;;;;;4998341;28;20199;-69
2021/12/19 02:04:56;;;;;;;34.50;19.55;;;4.10;99.90;;;;;;4998287;28;20265;-69
2021/12/19 02:07:25;;;;;;;41.17;20.60;;;4.10;99.90;;;;;;4998338;28;20805;-69
2021/12/19 02:09:52;;;;;;;36.63;17.52;;;4.10;99.90;;;;;;4997940;28;20253;-69
2021/12/19 02:12:18;;;;;;;40.00;20.80;;;4.10;99.90;;;;;;4998770;28;20215;-69
2021/12/19 02:14:45;;;;;;;40.65;19.05;;;4.10;99.90;;;;;;4998509;28;20284;-69
2021/12/19 02:17:11;;;;;;;39.35;18.77;;;4.10;99.90;;;;;;4998943;28;20571;-69
2021/12/19 02:19:40;;;;;;;35.05;17.38;;;4.10;99.90;;;;;;4998909;28;20287;-69
2021/12/19 02:22:06;;;;;;;39.30;19.85;;;4.10;99.90;;;;;;4997643;28;20233;-69
2021/12/19 02:24:34;;;;;;;37.90;19.63;;;4.00;99.90;;;;;;4997852;28;20726;-69
2021/12/19 02:27:01;;;;;;;37.20;20.13;;;4.10;99.90;;;;;;4998259;28;20206;-69
2021/12/19 02:29:27;;;;;;;48.83;21.65;;;4.10;99.90;;;;;;4997975;28;20203;-69
2021/12/19 02:31:54;;;;;;;39.92;20.75;;;4.10;99.90;;;;;;4997439;28;20210;-69
2021/12/19 02:34:24;;;;;;;37.58;19.48;;;4.10;99.90;;;;;;4997141;28;20206;-69
2021/12/19 02:50:10;;;;;;;49.67;22.55;;;3.90;99.90;;;;;;4997164;28;20421;-69
2021/12/19 02:52:37;;;;;;;61.85;28.30;;;3.90;99.90;;;;;;4996800;28;20198;-69
2021/12/19 02:55:05;;;;;;;41.95;20.77;;;3.90;99.90;;;;;;4997790;28;20203;-69
2021/12/19 02:57:32;;;;;;;42.67;21.20;;;4.00;99.90;;;;;;4997850;28;20203;-69
2021/12/19 02:59:59;;;;;;;52.45;21.00;;;4.00;99.90;;;;;;4996775;28;20738;-69
2021/12/19 03:02:25;;;;;;;44.70;21.67;;;4.00;99.90;;;;;;4997792;28;20268;-69
2021/12/19 03:04:57;;;;;;;43.10;17.48;;;4.00;99.90;;;;;;4997700;28;20264;-69
2021/12/19 03:07:25;;;;;;;42.28;18.15;;;4.00;99.90;;;;;;4997712;28;20737;-69
2021/12/19 03:18:24;;;;;;;44.80;23.88;;;3.80;99.90;;;;;;4997837;28;20191;-69
2021/12/19 03:20:50;;;;;;;48.63;22.40;;;3.80;99.90;;;;;;4997661;28;20253;-69
2021/12/19 03:23:17;;;;;;;43.03;20.85;;;4.00;99.90;;;;;;4996294;28;20202;-69
2021/12/19 03:25:44;;;;;;;52.30;20.92;;;4.00;99.90;;;;;;4997593;28;20202;-70
2021/12/19 03:28:12;;;;;;;52.22;24.35;;;3.90;99.90;;;;;;4997161;28;20207;-71
2021/12/19 03:30:42;;;;;;;50.05;21.60;;;3.90;99.90;;;;;;4996286;28;20274;-71
2021/12/19 03:33:09;;;;;;;51.22;24.08;;;4.00;99.90;;;;;;4978867;28;20216;-71
2021/12/19 03:35:36;;;;;;;48.97;21.60;;;4.00;99.90;;;;;;4995943;28;20202;-71
2021/12/19 03:38:05;;;;;;;43.00;21.08;;;4.00;99.90;;;;;;4996870;28;20269;-71
2021/12/19 03:40:37;;;;;;;47.95;24.27;;;4.00;99.90;;;;;;4996232;28;20225;-71
2021/12/19 03:43:12;;;;;;;44.63;21.65;;;4.00;99.90;;;;;;4996396;28;20190;-71
2021/12/19 03:45:39;;;;;;;47.10;21.17;;;4.00;99.90;;;;;;4996844;28;20197;-71
2021/12/19 03:48:11;;;;;;;52.03;23.33;;;4.00;99.90;;;;;;4996533;28;20199;-71
2021/12/19 03:50:42;;;;;;;53.75;25.52;;;4.00;99.90;;;;;;4995181;28;20613;-71
2021/12/19 03:53:09;;;;;;;41.42;21.02;;;4.00;99.90;;;;;;4995478;28;20229;-71
2021/12/19 03:55:35;;;;;;;52.60;22.13;;;3.90;99.90;;;;;;4995619;28;20213;-71
2021/12/19 03:58:03;;;;;;;52.47;21.42;;;3.90;99.90;;;;;;4996135;28;20290;-71
2021/12/19 04:00:31;;;;;;;52.65;23.85;;;3.90;99.90;;;;;;4995945;28;20641;-72
2021/12/19 04:03:03;;;;;;;45.05;20.38;;;3.90;99.90;;;;;;4996051;28;20479;-71
2021/12/19 04:05:30;;;;;;;48.95;20.80;;;3.90;99.90;;;;;;4995433;28;20203;-71
2021/12/19 04:07:56;;;;;;;53.90;21.88;;;4.00;99.90;;;;;;4995831;28;20207;-71
2021/12/19 04:10:24;;;;;;;47.92;21.67;;;4.00;99.90;;;;;;4995242;28;20210;-71
2021/12/19 04:12:51;;;;;;;55.25;24.58;;;4.00;99.90;;;;;;4995516;28;20203;-71
2021/12/19 04:15:17;;;;;;;46.30;20.25;;;4.00;99.90;;;;;;4995664;28;20206;-71
2021/12/19 04:17:44;;;;;;;48.03;22.35;;;3.90;99.90;;;;;;4995671;28;20206;-71
2021/12/19 04:20:11;;;;;;;56.35;26.90;;;4.00;99.90;;;;;;4995239;28;20770;-71
2021/12/19 04:22:38;;;;;;;43.05;20.30;;;4.00;99.90;;;;;;4995280;28;20249;-71
2021/12/19 04:25:05;;;;;;;46.80;21.35;;;4.00;99.90;;;;;;4995736;28;20277;-71
2021/12/19 04:27:33;;;;;;;42.90;19.75;;;4.00;99.90;;;;;;4995550;28;20198;-71
2021/12/19 04:30:00;;;;;;;50.05;23.48;;;4.00;99.90;;;;;;4994664;28;20202;-71
2021/12/19 04:32:31;;;;;;;45.75;21.30;;;4.00;99.90;;;;;;4994276;28;20658;-71
2021/12/19 04:34:58;;;;;;;52.22;22.88;;;4.00;99.90;;;;;;4994344;28;20210;-71
2021/12/19 04:40:09;;;;;;;46.78;21.70;;;4.00;99.90;;;;;;4994861;28;20268;-70
2021/12/19 04:51:14;;;;;;;37.50;19.02;;;4.00;99.90;;;;;;4994341;28;20615;-70
2021/12/19 04:53:59;;;;;;;44.90;21.25;;;3.90;99.90;;;;;;4994555;28;20212;-70
2021/12/19 04:56:40;;;;;;;44.78;20.95;;;4.00;99.90;;;;;;4994958;28;20297;-70
2021/12/19 04:59:37;;;;;;;46.25;21.05;;;4.00;99.90;;;;;;4994966;28;20191;-69
2021/12/19 05:15:36;;;;;;;31.38;16.55;;;4.00;99.90;;;;;;4995145;28;20245;-70
2021/12/19 05:18:09;;;;;;;33.72;17.95;;;4.00;99.90;;;;;;4994459;28;20194;-70
2021/12/19 05:20:36;;;;;;;8.98;6.85;;;3.90;99.90;;;;;;4993872;28;20239;-70
2021/12/19 05:23:34;;;;;;;14.93;8.95;;;3.90;99.90;;;;;;4994485;28;20198;-70
2021/12/19 05:25:51;;;;;;;15.48;9.57;;;3.90;99.90;;;;;;4998863;28;20206;-70
2021/12/19 05:28:18;;;;;;;13.98;9.05;;;4.00;99.90;;;;;;4999720;28;20229;-70
2021/12/19 05:30:44;;;;;;;17.70;11.23;;;4.00;99.90;;;;;;4999194;28;20626;-71
2021/12/19 05:33:11;;;;;;;16.92;10.00;;;4.00;99.90;;;;;;4998939;28;20202;-71
2021/12/19 05:46:29;;;;;;;9.02;6.78;;;3.90;99.90;;;;;;4998941;28;20194;-70
2021/12/19 05:48:56;;;;;;;7.65;6.78;;;4.00;99.90;;;;;;4998210;28;20206;-70
2021/12/19 05:51:22;;;;;;;10.73;8.10;;;3.90;99.90;;;;;;4998146;28;20207;-69
2021/12/19 05:53:48;;;;;;;7.72;6.55;;;4.00;99.90;;;;;;4998545;28;20740;-70
2021/12/19 05:56:15;;;;;;;6.07;5.47;;;4.00;99.90;;;;;;4998241;28;20209;-71
2021/12/19 05:58:41;;;;;;;5.53;4.85;;;3.90;99.90;;;;;;4998631;28;20198;-69
2021/12/19 06:01:08;;;;;;;5.68;5.18;;;3.90;99.90;;;;;;4998220;28;20682;-69
2021/12/19 06:03:34;;;;;;;4.38;4.07;;;4.00;99.90;;;;;;4998580;28;20268;-70
2021/12/19 06:06:00;;;;;;;2.85;2.65;;;3.90;99.90;;;;;;4998229;28;20219;-70
2021/12/19 06:08:27;;;;;;;3.53;3.25;;;3.90;99.90;;;;;;4998582;28;20206;-71
2021/12/19 06:10:53;;;;;;;4.25;3.85;;;3.90;99.90;;;;;;4998023;28;20207;-71
2021/12/19 06:13:20;;;;;;;3.90;3.63;;;3.90;99.90;;;;;;4998319;28;20224;-71
2021/12/19 06:15:50;;;;;;;4.75;4.40;;;3.90;99.90;;;;;;4998338;28;20569;-70
2021/12/19 06:18:16;;;;;;;3.72;3.47;;;3.80;99.90;;;;;;4998022;28;20250;-71
2021/12/19 06:20:43;;;;;;;4.13;3.83;;;3.80;99.90;;;;;;4998405;28;20242;-70
2021/12/19 06:23:09;;;;;;;3.80;3.50;;;3.80;99.90;;;;;;4998450;28;20206;-70
2021/12/19 06:25:36;;;;;;;2.92;2.72;;;3.80;99.90;;;;;;4998414;28;20615;-70
2021/12/19 06:28:03;;;;;;;4.50;4.10;;;3.80;99.90;;;;;;4997609;28;20203;-70
2021/12/19 06:30:30;;;;;;;3.33;3.03;;;3.80;99.90;;;;;;4997712;28;20256;-70
2021/12/19 06:32:56;;;;;;;3.25;2.95;;;3.80;99.90;;;;;;4996984;28;20543;-71
2021/12/19 06:35:28;;;;;;;3.97;3.67;;;3.80;99.90;;;;;;4996360;28;20245;-70
2021/12/19 06:37:55;;;;;;;3.80;3.53;;;3.70;99.90;;;;;;4980486;28;20207;-70
2021/12/19 06:40:22;;;;;;;4.05;3.75;;;3.60;99.90;;;;;;4997758;28;20237;-70
2021/12/19 06:42:49;;;;;;;5.93;4.70;;;3.70;99.90;;;;;;4997307;28;20670;-70
2021/12/19 06:45:17;;;;;;;4.05;3.75;;;3.70;99.90;;;;;;4997588;28;20211;-71
2021/12/19 06:47:44;;;;;;;3.22;3.03;;;3.70;99.90;;;;;;4997287;28;20689;-71
2021/12/19 06:50:12;;;;;;;5.22;4.82;;;3.70;99.90;;;;;;4997501;28;20209;-70
2021/12/19 06:52:39;;;;;;;4.30;3.90;;;3.60;99.90;;;;;;4997623;28;20214;-71
2021/12/19 06:55:08;;;;;;;3.60;3.40;;;3.60;99.90;;;;;;4997353;28;20269;-71
2021/12/19 06:57:35;;;;;;;4.75;4.35;;;3.60;99.90;;;;;;4996989;28;20260;-70
2021/12/19 07:00:07;;;;;;;4.40;4.10;;;3.60;99.90;;;;;;4979431;28;20613;-70
2021/12/19 07:02:34;;;;;;;3.25;3.05;;;3.60;99.90;;;;;;4979557;28;20281;-71
2021/12/19 07:05:00;;;;;;;5.25;4.93;;;3.60;99.90;;;;;;4997223;28;20650;-71
2021/12/19 07:07:27;;;;;;;5.50;5.10;;;3.50;99.90;;;;;;4996886;28;20218;-70
2021/12/19 07:09:53;;;;;;;7.47;6.93;;;3.50;99.90;;;;;;4996378;28;20688;-69
2021/12/19 07:12:20;;;;;;;4.78;4.47;;;3.50;99.90;;;;;;4996450;28;20211;-70
2021/12/19 07:14:46;;;;;;;4.45;4.15;;;3.50;99.90;;;;;;4996181;28;20211;-70
2021/12/19 07:17:13;;;;;;;4.25;3.47;;;3.50;99.90;;;;;;4996918;28;20233;-70
2021/12/19 07:19:39;;;;;;;3.53;3.33;;;3.50;99.90;;;;;;4997113;28;20272;-71
2021/12/19 07:22:06;;;;;;;5.55;5.05;;;3.40;99.90;;;;;;4996311;28;20241;-71
2021/12/19 07:24:32;;;;;;;2.55;2.40;;;3.50;99.90;;;;;;4979038;28;20214;-71
2021/12/19 07:26:58;;;;;;;3.10;2.90;;;3.50;99.90;;;;;;4997331;28;20213;-71
2021/12/19 07:29:25;;;;;;;2.63;2.53;;;3.40;99.90;;;;;;4996976;28;20198;-70
2021/12/19 07:31:51;;;;;;;3.10;2.90;;;3.30;99.90;;;;;;4996728;28;20206;-71
2021/12/19 07:34:18;;;;;;;3.28;3.08;;;3.30;99.90;;;;;;4996101;28;20413;-71
2021/12/19 07:36:51;;;;;;;2.63;2.42;;;3.40;99.90;;;;;;4996737;28;20206;-71
2021/12/19 07:40:10;;;;;;;3.38;3.10;;;3.30;99.90;;;;;;4995266;28;20214;-71
2021/12/19 07:42:11;;;;;;;2.50;2.40;;;3.30;99.90;;;;;;4989897;28;20740;-71
2021/12/19 07:44:38;;;;;;;3.10;2.80;;;3.40;99.90;;;;;;4995670;28;20647;-71
2021/12/19 07:47:07;;;;;;;3.28;3.00;;;3.40;99.90;;;;;;4995406;28;20257;-71
2021/12/19 07:49:33;;;;;;;3.35;3.15;;;3.50;99.90;;;;;;4996230;28;20716;-71
2021/12/19 07:52:02;;;;;;;3.90;3.60;;;3.40;99.90;;;;;;4996267;28;20229;-71
2021/12/19 07:54:28;;;;;;;3.10;2.90;;;3.40;99.90;;;;;;4995806;28;20202;-71
2021/12/19 07:56:55;;;;;;;3.80;3.60;;;3.40;99.90;;;;;;4996903;28;20225;-72
2021/12/19 07:59:21;;;;;;;3.13;2.92;;;3.40;99.90;;;;;;4995605;28;20627;-71
2021/12/19 08:01:48;;;;;;;9.07;6.47;;;3.40;99.90;;;;;;4995677;28;20482;-70
2021/12/19 08:04:15;;;;;;;4.15;3.75;;;3.40;99.90;;;;;;4995101;28;20203;-71
2021/12/19 08:06:42;;;;;;;7.55;5.30;;;3.40;99.90;;;;;;4996074;28;20214;-70
2021/12/19 08:09:10;;;;;;;11.93;7.47;;;3.50;99.90;;;;;;4996033;28;20560;-70
2021/12/19 08:11:41;;;;;;;2.40;2.30;;;3.50;99.90;;;;;;4995465;28;20249;-70
2021/12/19 08:14:12;;;;;;;4.03;3.67;;;3.50;99.90;;;;;;4996549;28;20191;-71
2021/12/19 08:16:40;;;;;;;12.20;7.07;;;3.50;99.90;;;;;;4995915;28;20187;-71
2021/12/19 08:19:07;;;;;;;7.72;5.38;;;3.40;99.90;;;;;;4995749;28;20211;-70
2021/12/19 08:21:34;;;;;;;2.10;2.00;;;3.50;99.90;;;;;;4995351;28;20230;-70
2021/12/19 08:24:02;;;;;;;1.90;1.80;;;3.50;99.90;;;;;;4978215;28;20687;-71
2021/12/19 08:26:30;;;;;;;2.13;2.03;;;3.50;99.90;;;;;;4978222;28;20210;-71
2021/12/19 08:28:56;;;;;;;1.92;1.83;;;3.50;99.90;;;;;;4996721;28;20208;-70
2021/12/19 08:31:23;;;;;;;2.80;2.60;;;3.50;99.90;;;;;;4995810;28;20211;-70
2021/12/19 08:33:49;;;;;;;6.35;2.67;;;3.50;99.90;;;;;;4995709;28;20207;-71
2021/12/19 08:36:16;;;;;;;3.60;2.75;;;3.60;99.90;;;;;;4995434;28;20206;-71
2021/12/19 08:38:42;;;;;;;2.53;2.40;;;3.50;99.90;;;;;;4995080;28;20213;-71
2021/12/19 08:41:09;;;;;;;1.70;1.60;;;3.50;99.90;;;;;;4995200;28;20301;-70
2021/12/19 08:43:35;;;;;;;2.60;2.50;;;3.50;99.90;;;;;;4995248;28;20202;-71
2021/12/19 08:46:01;;;;;;;2.83;2.63;;;3.50;99.90;;;;;;4995290;28;20666;-70
2021/12/19 08:48:28;;;;;;;2.10;1.90;;;3.50;99.90;;;;;;4994351;28;20206;-71
2021/12/19 08:50:54;;;;;;;1.70;1.60;;;3.60;99.90;;;;;;4995260;28;20260;-71
2021/12/19 08:53:21;;;;;;;1.88;1.77;;;3.50;99.90;;;;;;4995926;28;20337;-71
2021/12/19 08:55:47;;;;;;;2.28;1.80;;;3.50;99.90;;;;;;4996273;28;20199;-71
2021/12/19 08:58:13;;;;;;;1.77;1.67;;;3.60;99.90;;;;;;4998265;28;20238;-71
2021/12/19 09:00:40;;;;;;;1.10;1.00;;;3.50;99.90;;;;;;5002420;28;20202;-70
2021/12/19 09:03:08;;;;;;;1.60;1.50;;;3.50;99.90;;;;;;5002655;28;20206;-71
2021/12/19 09:05:35;;;;;;;7.40;2.33;;;3.50;99.90;;;;;;5002381;28;20205;-71
2021/12/19 09:08:03;;;;;;;2.97;2.10;;;3.60;99.90;;;;;;5002662;28;20205;-70
2021/12/19 09:10:30;;;;;;;2.13;2.03;;;3.60;99.90;;;;;;5002555;28;20209;-71
2021/12/19 09:12:57;;;;;;;2.10;2.00;;;3.60;99.90;;;;;;5002764;28;20199;-70
2021/12/19 09:15:24;;;;;;;1.45;1.35;;;3.70;99.90;;;;;;5000067;28;20198;-70
2021/12/19 09:17:51;;;;;;;4.75;2.30;;;3.70;99.90;;;;;;5002653;28;20233;-70
2021/12/19 09:20:18;;;;;;;1.65;1.27;;;3.80;99.90;;;;;;5003848;28;20240;-71
2021/12/19 09:22:45;;;;;;;5.15;2.75;;;3.90;99.90;;;;;;5002240;28;20241;-71
2021/12/19 09:25:11;;;;;;;2.30;2.20;;;4.00;99.90;;;;;;5002104;28;20198;-70
2021/12/19 09:27:38;;;;;;;1.73;1.63;;;3.70;99.90;;;;;;4986108;28;20195;-70
2021/12/19 09:30:05;;;;;;;2.63;2.42;;;3.60;99.90;;;;;;5003305;28;20210;-70
2021/12/19 09:32:31;;;;;;;4.72;4.45;;;3.60;99.90;;;;;;5003134;28;20210;-70
2021/12/19 09:34:58;;;;;;;2.22;2.05;;;3.60;99.90;;;;;;5002908;28;20217;-71
2021/12/19 09:37:24;;;;;;;1.52;1.42;;;3.60;99.90;;;;;;5002353;28;20689;-70
2021/12/19 09:39:51;;;;;;;1.20;1.10;;;3.60;99.90;;;;;;5003237;28;20550;-71
2021/12/19 09:42:21;;;;;;;1.23;1.10;;;3.60;99.90;;;;;;5002984;28;20303;-70
2021/12/19 09:44:47;;;;;;;1.35;1.25;;;3.60;99.90;;;;;;5001002;28;20199;-71
2021/12/19 09:47:14;;;;;;;1.58;1.48;;;3.60;99.90;;;;;;5002454;28;20620;-71
2021/12/19 09:49:40;;;;;;;0.73;0.70;;;3.70;99.90;;;;;;5002584;28;20207;-71
2021/12/19 09:52:08;;;;;;;0.90;0.90;;;3.70;99.90;;;;;;5002348;28;20209;-72
2021/12/19 09:54:36;;;;;;;1.45;1.35;;;3.70;99.90;;;;;;5001530;28;20264;-71
2021/12/19 09:57:03;;;;;;;1.35;1.25;;;3.60;99.90;;;;;;5001292;28;20207;-72
2021/12/19 09:59:30;;;;;;;0.85;0.85;;;3.60;99.90;;;;;;5001270;28;20211;-73
2021/12/19 10:01:57;;;;;;;1.17;1.08;;;3.70;99.90;;;;;;5000631;28;20222;-72
2021/12/19 10:04:40;;;;;;;1.77;0.80;;;3.70;99.90;;;;;;5002464;28;20285;-72
2021/12/19 10:07:09;;;;;;;1.10;1.00;;;3.70;99.90;;;;;;5000197;28;20741;-72
2021/12/19 10:09:50;;;;;;;1.83;1.58;;;3.70;99.90;;;;;;4998530;28;20205;-73
2021/12/19 10:12:37;;;;;;;3.35;3.05;;;3.70;99.90;;;;;;4997845;28;20316;-71
2021/12/19 10:15:06;;;;;;;2.35;2.15;;;3.70;99.90;;;;;;4997463;28;20199;-72
2021/12/19 10:17:32;;;;;;;2.13;1.92;;;3.80;99.90;;;;;;4999065;28;20692;-72
2021/12/19 10:20:02;;;;;;;1.20;1.10;;;3.80;99.90;;;;;;4979832;28;20215;-71
2021/12/19 10:22:31;;;;;;;1.40;1.30;;;3.80;99.90;;;;;;4978337;28;20231;-72
2021/12/19 10:25:30;;;;;;;1.88;1.55;;;3.70;99.90;;;;;;4978965;28;20731;-69
2021/12/19 10:28:09;;;;;;;1.58;1.27;;;3.70;99.90;;;;;;4978824;28;20211;-70
2021/12/19 10:30:47;;;;;;;4.30;2.65;;;3.70;99.90;;;;;;4990603;28;20202;-70
2021/12/19 10:33:16;;;;;;;10.52;6.65;;;3.80;99.90;;;;;;4998517;28;20194;-71
2021/12/19 10:35:46;;;;;;;4.95;3.38;;;3.80;99.90;;;;;;4999441;28;20209;-72
2021/12/19 10:38:28;;;;;;;2.45;2.25;;;3.80;99.90;;;;;;4998857;28;20210;-71
2021/12/19 10:41:00;;;;;;;2.78;1.83;;;3.80;99.90;;;;;;4997140;28;20325;-71
2021/12/19 10:43:31;;;;;;;2.28;2.15;;;3.80;99.90;;;;;;4997607;28;20203;-72
2021/12/19 10:46:03;;;;;;;1.30;1.20;;;3.80;99.90;;;;;;4998713;28;20187;-72
2021/12/19 10:48:34;;;;;;;1.45;1.35;;;3.80;99.90;;;;;;4998849;28;20256;-72
2021/12/19 10:51:08;;;;;;;2.10;1.25;;;3.70;99.90;;;;;;4998019;28;20282;-71
2021/12/19 10:53:39;;;;;;;1.38;1.27;;;3.80;99.90;;;;;;4997792;28;20183;-71
2021/12/19 10:56:19;;;;;;;2.45;1.88;;;3.90;99.90;;;;;;4997623;28;20210;-71
2021/12/19 10:58:56;;;;;;;1.88;1.77;;;3.80;99.90;;;;;;4998764;28;20203;-71
2021/12/19 11:01:30;;;;;;;1.70;1.60;;;3.60;99.90;;;;;;4998108;28;20225;-71
2021/12/19 11:04:14;;;;;;;1.70;1.60;;;3.70;99.90;;;;;;4998798;28;20286;-71
2021/12/19 11:06:56;;;;;;;1.75;1.65;;;3.70;99.90;;;;;;4997162;28;20574;-71
2021/12/19 11:09:26;;;;;;;2.08;1.95;;;3.60;99.90;;;;;;4997546;28;20271;-71
2021/12/19 11:11:54;;;;;;;2.20;2.05;;;3.60;99.90;;;;;;4997422;28;20241;-71
2021/12/19 11:14:27;;;;;;;1.92;1.83;;;3.70;99.90;;;;;;4996735;28;20217;-72
2021/12/19 11:17:10;;;;;;;6.80;3.35;;;3.70;99.90;;;;;;4980649;28;20213;-72
2021/12/19 11:19:38;;;;;;;3.05;2.72;;;3.80;99.90;;;;;;4998392;28;20210;-72
2021/12/19 11:22:06;;;;;;;2.80;2.60;;;3.90;99.90;;;;;;4996794;28;20234;-72
2021/12/19 11:24:33;;;;;;;3.50;2.88;;;3.80;99.90;;;;;;4998002;28;20757;-72
2021/12/19 11:27:03;;;;;;;4.72;3.10;;;3.90;99.90;;;;;;4996232;28;20202;-71
2021/12/19 11:29:30;;;;;;;3.40;3.08;;;3.90;99.90;;;;;;4997947;28;20187;-72
2021/12/19 11:32:04;;;;;;;3.50;3.20;;;3.90;99.90;;;;;;4997292;28;20280;-72
2021/12/19 11:34:58;;;;;;;3.50;3.20;;;3.90;99.90;;;;;;4996124;28;20213;-72
2021/12/19 11:37:27;;;;;;;4.22;3.40;;;3.90;99.90;;;;;;4996450;28;20203;-72
2021/12/19 11:39:56;;;;;;;4.75;4.35;;;3.90;99.90;;;;;;4997308;28;20230;-71
2021/12/19 11:42:28;;;;;;;2.92;2.67;;;3.90;99.90;;;;;;4996989;28;20233;-71
2021/12/19 11:47:58;;;;;;;4.07;3.15;;;3.90;99.90;;;;;;4996235;28;20187;-71
2021/12/19 11:50:26;;;;;;;2.78;2.50;;;3.80;99.90;;;;;;4996620;28;20206;-71
2021/12/19 11:53:16;;;;;;;4.47;3.20;;;3.80;99.90;;;;;;4995896;28;20206;-71
2021/12/19 11:55:54;;;;;;;3.38;3.08;;;3.80;99.90;;;;;;4989765;28;20211;-71
2021/12/19 11:58:29;;;;;;;3.95;3.20;;;3.80;99.90;;;;;;4995975;28;20198;-71
2021/12/19 12:01:02;;;;;;;4.20;3.53;;;3.90;99.90;;;;;;4996199;28;20213;-71
2021/12/19 12:03:39;;;;;;;5.82;3.47;;;3.80;99.90;;;;;;4992515;28;20223;-71
2021/12/19 12:06:17;;;;;;;4.40;3.63;;;3.90;99.90;;;;;;4977225;28;20229;-71
2021/12/19 12:09:03;;;;;;;4.72;4.18;;;3.90;99.90;;;;;;4976796;28;20195;-71
2021/12/19 12:11:30;;;;;;;4.40;3.75;;;4.00;99.90;;;;;;4975568;28;20265;-71
2021/12/19 12:14:23;;;;;;;3.97;3.45;;;4.10;99.90;;;;;;4976715;28;20230;-71
2021/12/19 12:16:58;;;;;;;5.45;4.45;;;4.10;99.90;;;;;;4975023;28;20803;-71
2021/12/19 12:19:51;;;;;;;5.18;4.22;;;4.10;99.90;;;;;;4975399;28;20207;-71
2021/12/19 12:22:44;;;;;;;4.43;3.42;;;4.20;99.90;;;;;;4975289;28;20223;-71
2021/12/19 12:25:34;;;;;;;4.07;3.78;;;4.30;99.90;;;;;;4975161;28;20204;-71
2021/12/19 12:28:08;;;;;;;4.30;3.90;;;4.00;99.90;;;;;;4976330;28;20203;-72
2021/12/19 12:30:47;;;;;;;4.70;4.10;;;4.00;99.90;;;;;;4975950;28;20199;-71
2021/12/19 12:33:20;;;;;;;4.97;4.38;;;4.10;99.90;;;;;;4959061;28;20402;-72
2021/12/19 12:35:51;;;;;;;6.35;4.82;;;4.20;99.90;;;;;;4976343;28;20207;-71
2021/12/19 12:38:19;;;;;;;5.97;4.68;;;4.20;99.90;;;;;;4976571;28;20204;-72
2021/12/19 12:41:04;;;;;;;5.03;3.80;;;4.20;99.90;;;;;;4975972;28;20210;-71
2021/12/19 12:43:35;;;;;;;8.57;4.47;;;4.20;99.90;;;;;;4975640;28;20278;-71
2021/12/19 12:46:07;;;;;;;5.47;4.38;;;4.20;99.90;;;;;;4976359;28;20210;-71
2021/12/19 12:48:51;;;;;;;6.30;5.13;;;4.20;99.90;;;;;;4976978;28;20253;-71
2021/12/19 12:51:25;;;;;;;5.25;4.50;;;4.20;99.90;;;;;;4976195;28;20210;-71
2021/12/19 12:53:54;;;;;;;7.63;6.82;;;4.00;99.90;;;;;;4976466;28;20191;-71
2021/12/19 12:56:27;;;;;;;7.35;4.80;;;4.20;99.90;;;;;;4974883;28;20211;-72
2021/12/19 12:58:55;;;;;;;5.25;4.70;;;4.20;99.90;;;;;;4976660;28;20211;-71
2021/12/19 13:01:23;;;;;;;7.15;4.88;;;4.20;99.90;;;;;;4976539;28;20203;-71
2021/12/19 13:04:12;;;;;;;4.40;3.90;;;4.30;99.90;;;;;;4975655;28;20210;-71
2021/12/19 13:06:53;;;;;;;7.55;5.13;;;4.30;99.90;;;;;;4974247;28;20223;-71
2021/12/19 13:09:25;;;;;;;5.18;4.78;;;4.30;99.90;;;;;;4975650;28;20207;-70
2021/12/19 13:12:17;;;;;;;6.18;4.85;;;4.20;99.90;;;;;;4975429;28;20341;-71
2021/12/19 13:14:53;;;;;;;5.47;4.55;;;4.20;99.90;;;;;;4958551;28;20207;-71
2021/12/19 13:17:21;;;;;;;6.00;5.40;;;4.10;99.90;;;;;;4976109;28;20207;-71
2021/12/19 13:19:49;;;;;;;9.25;6.10;;;4.10;99.90;;;;;;4976364;28;20592;-71
2021/12/19 13:22:29;;;;;;;5.05;4.55;;;4.20;99.90;;;;;;4975293;28;20226;-71
2021/12/19 13:25:15;;;;;;;7.10;5.75;;;4.10;99.90;;;;;;4974596;28;20667;-72
2021/12/19 13:27:47;;;;;;;7.00;4.38;;;4.20;99.90;;;;;;4975276;28;20283;-71
2021/12/19 13:30:24;;;;;;;9.68;5.97;;;4.10;99.90;;;;;;4976333;28;20187;-71
2021/12/19 13:33:14;;;;;;;8.15;5.93;;;4.10;99.90;;;;;;4975929;28;20194;-71
2021/12/19 13:35:46;;;;;;;6.15;5.07;;;4.20;99.90;;;;;;4965673;28;20215;-72
2021/12/19 13:38:24;;;;;;;5.93;5.25;;;4.20;99.90;;;;;;4974847;28;20211;-71
2021/12/19 13:40:55;;;;;;;7.22;6.05;;;4.10;99.90;;;;;;4975431;28;20584;-71
2021/12/19 13:43:26;;;;;;;7.85;5.75;;;4.20;99.90;;;;;;4975097;28;20246;-70
2021/12/19 13:45:56;;;;;;;7.97;5.40;;;4.10;99.90;;;;;;4978046;28;20195;-70
2021/12/19 13:48:27;;;;;;;8.38;5.75;;;4.10;99.90;;;;;;4979415;28;20658;-70
2021/12/19 13:50:59;;;;;;;9.43;6.78;;;4.10;99.90;;;;;;4981704;28;20234;-71
2021/12/19 13:53:29;;;;;;;7.10;5.82;;;4.10;99.90;;;;;;4980344;28;20196;-70
2021/12/19 13:56:13;;;;;;;6.32;5.72;;;4.20;99.90;;;;;;4979574;28;20218;-70
2021/12/19 13:58:51;;;;;;;9.45;6.07;;;4.00;99.90;;;;;;4979074;28;20801;-73
2021/12/19 14:01:22;;;;;;;6.68;5.97;;;4.10;99.90;;;;;;4979093;28;20191;-70
2021/12/19 14:03:59;;;;;;;10.23;7.13;;;4.00;99.90;;;;;;4978529;28;20718;-71
2021/12/19 14:06:31;;;;;;;16.48;11.20;;;4.10;99.90;;;;;;4979045;28;20231;-70
2021/12/19 14:09:19;;;;;;;11.38;10.15;;;4.10;99.90;;;;;;4969827;28;20207;-70
2021/12/19 14:11:55;;;;;;;7.25;5.78;;;4.00;99.90;;;;;;4977461;28;20218;-69